Time;durP1;ratioP1;P1;durP2;ratioP2;P2;SDS_P1;SDS_P2;PMS_P1;PMS_P2;Temp;Humidity;BMP_temperature;BMP_pressure;BME280_temperature;BME280_humidity;BME280_pressure;Samples;Min_cycle;Max_cycle;Signal;HPM_P1;HPM_P2
2021/11/21 00:01:19;;;;;;;15.85;9.90;;;10.00;99.90;;;;;;5051873;28;20199;-77
2021/11/21 00:03:46;;;;;;;14.88;9.25;;;9.90;99.90;;;;;;5049050;28;20203;-77
2021/11/21 00:06:14;;;;;;;16.45;9.35;;;9.90;99.90;;;;;;5053214;28;20248;-76
2021/11/21 00:08:43;;;;;;;14.63;9.77;;;10.00;99.90;;;;;;5047888;28;20540;-74
2021/11/21 00:11:11;;;;;;;16.20;11.00;;;9.90;99.90;;;;;;5051543;28;20199;-77
2021/11/21 00:13:38;;;;;;;21.15;11.40;;;9.90;99.90;;;;;;5051973;28;20200;-77
2021/11/21 00:16:06;;;;;;;15.73;9.98;;;10.00;99.90;;;;;;5041363;28;20671;-78
2021/11/21 00:18:34;;;;;;;15.57;10.13;;;10.00;99.90;;;;;;5046451;28;20705;-76
2021/11/21 00:21:01;;;;;;;17.10;11.07;;;10.00;99.90;;;;;;5047292;28;20199;-78
2021/11/21 00:23:30;;;;;;;15.88;11.27;;;10.10;99.90;;;;;;5051045;28;20236;-77
2021/11/21 00:26:01;;;;;;;15.80;10.02;;;10.00;99.90;;;;;;5053941;28;20310;-76
2021/11/21 00:28:28;;;;;;;14.63;9.45;;;10.00;99.90;;;;;;5051831;28;20623;-75
2021/11/21 00:30:55;;;;;;;15.45;11.10;;;10.00;99.90;;;;;;5042515;28;20224;-75
2021/11/21 00:33:23;;;;;;;16.02;12.00;;;10.00;99.90;;;;;;5050960;28;20440;-78
2021/11/21 00:35:50;;;;;;;16.45;11.40;;;10.10;99.90;;;;;;5052349;28;20666;-77
2021/11/21 00:38:17;;;;;;;14.98;10.65;;;10.00;99.90;;;;;;5056122;28;20708;-77
2021/11/21 00:40:45;;;;;;;12.77;9.65;;;10.10;99.90;;;;;;5053465;28;20208;-75
2021/11/21 00:43:13;;;;;;;13.95;10.27;;;10.00;99.90;;;;;;5051152;28;20207;-78
2021/11/21 00:45:41;;;;;;;14.68;10.35;;;10.00;99.90;;;;;;5054112;28;20284;-76
2021/11/21 00:48:08;;;;;;;14.10;8.63;;;10.10;99.90;;;;;;5048070;28;20208;-75
2021/11/21 00:50:35;;;;;;;16.92;8.73;;;10.10;99.90;;;;;;5050640;28;20563;-78
2021/11/21 00:53:03;;;;;;;15.85;10.23;;;10.10;99.90;;;;;;5054726;28;20204;-76
2021/11/21 00:55:37;;;;;;;13.43;9.90;;;10.10;99.90;;;;;;5056863;28;20295;-77
2021/11/21 00:58:05;;;;;;;11.90;8.35;;;10.10;99.90;;;;;;5055648;28;20209;-78
2021/11/21 01:00:35;;;;;;;11.68;9.93;;;10.20;99.90;;;;;;5051268;28;20577;-75
2021/11/21 01:03:03;;;;;;;14.20;10.15;;;10.20;99.90;;;;;;5056404;28;20273;-76
2021/11/21 01:05:30;;;;;;;15.18;10.10;;;10.30;99.90;;;;;;5051434;28;20199;-77
2021/11/21 01:07:57;;;;;;;12.50;10.90;;;10.30;99.90;;;;;;5058776;28;20233;-75
2021/11/21 01:10:26;;;;;;;13.60;10.38;;;10.20;99.90;;;;;;5055109;28;20284;-77
2021/11/21 01:12:54;;;;;;;17.42;12.38;;;10.20;99.90;;;;;;5054894;28;20252;-77
2021/11/21 01:15:23;;;;;;;18.23;12.18;;;10.20;99.90;;;;;;5052049;28;20200;-77
2021/11/21 01:17:55;;;;;;;16.67;11.48;;;10.20;99.90;;;;;;5055342;28;20712;-78
2021/11/21 01:20:24;;;;;;;14.15;10.77;;;10.20;99.90;;;;;;5054508;28;20199;-77
2021/11/21 01:22:53;;;;;;;18.33;12.75;;;10.20;99.90;;;;;;5055642;28;20203;-77
2021/11/21 01:25:21;;;;;;;15.20;12.38;;;10.20;99.90;;;;;;5052589;28;20236;-77
2021/11/21 01:27:48;;;;;;;12.57;11.27;;;10.20;99.90;;;;;;5049307;28;20200;-77
2021/11/21 01:30:20;;;;;;;16.00;13.07;;;10.20;99.90;;;;;;5054413;28;20216;-77
2021/11/21 01:32:47;;;;;;;16.52;12.40;;;10.20;99.90;;;;;;5055538;28;20195;-76
2021/11/21 01:35:16;;;;;;;15.45;12.57;;;10.30;99.90;;;;;;5051666;28;20199;-76
2021/11/21 01:37:43;;;;;;;16.10;12.25;;;10.30;99.90;;;;;;5051010;28;20719;-77
2021/11/21 01:40:13;;;;;;;16.88;12.35;;;10.20;99.90;;;;;;5053270;28;20199;-77
2021/11/21 01:42:42;;;;;;;21.92;14.90;;;10.20;99.90;;;;;;5055464;28;20795;-78
2021/11/21 01:45:10;;;;;;;16.63;12.50;;;10.20;99.90;;;;;;5055043;28;20261;-76
2021/11/21 01:47:38;;;;;;;16.80;12.48;;;10.20;99.90;;;;;;5049849;28;20227;-76
2021/11/21 01:50:06;;;;;;;22.58;14.35;;;10.10;99.90;;;;;;5058005;28;20224;-76
2021/11/21 01:52:35;;;;;;;18.50;13.18;;;10.20;99.90;;;;;;5053686;28;20431;-78
2021/11/21 01:55:02;;;;;;;19.05;12.35;;;10.10;99.90;;;;;;5053134;28;20211;-77
2021/11/21 01:57:29;;;;;;;20.35;13.57;;;10.20;99.90;;;;;;5054320;28;20583;-78
2021/11/21 01:59:59;;;;;;;16.60;13.30;;;10.10;99.90;;;;;;5054055;28;20291;-77
2021/11/21 02:02:26;;;;;;;17.20;12.80;;;10.10;99.90;;;;;;5058937;28;20195;-76
2021/11/21 02:04:53;;;;;;;17.95;13.85;;;10.10;99.90;;;;;;5056855;28;20641;-76
2021/11/21 02:07:20;;;;;;;17.63;13.15;;;10.10;99.90;;;;;;5057944;28;20324;-77
2021/11/21 02:09:49;;;;;;;17.90;13.45;;;10.10;99.90;;;;;;5059294;28;20254;-75
2021/11/21 02:12:16;;;;;;;20.60;15.73;;;10.10;99.90;;;;;;5054083;28;20208;-77
2021/11/21 02:14:44;;;;;;;18.88;13.95;;;10.20;99.90;;;;;;5058822;28;20273;-76
2021/11/21 02:17:11;;;;;;;19.75;13.95;;;10.10;99.90;;;;;;5054148;28;20291;-75
2021/11/21 02:19:38;;;;;;;21.27;13.35;;;9.90;99.90;;;;;;5054416;28;20208;-77
2021/11/21 02:22:06;;;;;;;19.52;14.40;;;10.10;99.90;;;;;;5055173;28;20628;-77
2021/11/21 02:24:33;;;;;;;24.27;16.65;;;10.10;99.90;;;;;;5062781;28;20204;-78
2021/11/21 02:27:01;;;;;;;20.77;14.05;;;10.10;99.90;;;;;;5053366;28;20235;-76
2021/11/21 02:29:28;;;;;;;19.42;13.90;;;10.20;99.90;;;;;;5058676;28;20204;-77
2021/11/21 02:31:55;;;;;;;21.52;15.52;;;10.20;99.90;;;;;;5057371;28;20654;-78
2021/11/21 02:34:22;;;;;;;16.10;11.82;;;10.20;99.90;;;;;;5053889;28;20257;-77
2021/11/21 02:36:51;;;;;;;22.33;14.65;;;10.20;99.90;;;;;;5053775;28;20611;-78
2021/11/21 02:39:19;;;;;;;15.50;12.57;;;10.20;99.90;;;;;;5051769;28;20269;-77
2021/11/21 02:41:46;;;;;;;20.20;14.00;;;10.20;99.90;;;;;;5053787;28;20589;-77
2021/11/21 02:44:13;;;;;;;20.52;14.73;;;10.20;99.90;;;;;;5053183;28;20671;-77
2021/11/21 02:46:40;;;;;;;15.27;12.43;;;10.20;99.90;;;;;;5048528;28;20219;-78
2021/11/21 02:49:07;;;;;;;17.83;13.10;;;10.20;99.90;;;;;;5053093;28;20622;-76
2021/11/21 02:51:34;;;;;;;19.52;13.25;;;10.10;99.90;;;;;;5053357;28;20223;-76
2021/11/21 02:54:01;;;;;;;18.17;12.65;;;10.20;99.90;;;;;;5053108;28;20199;-76
2021/11/21 02:56:30;;;;;;;20.30;15.15;;;10.10;99.90;;;;;;5057871;28;20223;-76
2021/11/21 02:58:59;;;;;;;17.38;12.75;;;10.10;99.90;;;;;;5054866;28;20211;-75
2021/11/21 03:01:28;;;;;;;15.70;12.50;;;10.10;99.90;;;;;;5054507;28;20204;-76
2021/11/21 03:03:56;;;;;;;19.35;16.00;;;10.10;99.90;;;;;;5057186;28;20233;-77
2021/11/21 03:06:23;;;;;;;18.92;13.48;;;10.10;99.90;;;;;;5047563;28;20216;-76
2021/11/21 03:08:50;;;;;;;22.20;14.10;;;10.10;99.90;;;;;;5052322;28;20219;-76
2021/11/21 03:11:28;;;;;;;19.00;15.18;;;10.10;99.90;;;;;;5042320;28;20653;-78
2021/11/21 03:13:57;;;;;;;18.20;13.00;;;10.10;99.90;;;;;;5057278;28;20218;-78
2021/11/21 03:16:24;;;;;;;25.15;15.50;;;10.10;99.90;;;;;;5039107;28;20228;-77
2021/11/21 03:18:53;;;;;;;18.77;14.65;;;10.10;99.90;;;;;;5049770;28;20245;-78
2021/11/21 03:21:20;;;;;;;20.85;14.73;;;10.20;99.90;;;;;;5052412;28;20279;-76
2021/11/21 03:23:47;;;;;;;27.90;15.30;;;10.20;99.90;;;;;;5052614;28;20245;-77
2021/11/21 03:26:15;;;;;;;22.50;16.80;;;10.20;99.90;;;;;;5051170;28;20219;-77
2021/11/21 03:28:42;;;;;;;23.55;15.60;;;10.10;99.90;;;;;;5052717;28;20257;-77
2021/11/21 03:31:10;;;;;;;24.55;16.73;;;10.10;99.90;;;;;;5047023;28;20215;-78
2021/11/21 03:33:39;;;;;;;23.60;17.55;;;10.10;99.90;;;;;;5053852;28;20203;-76
2021/11/21 03:36:06;;;;;;;30.63;19.42;;;10.00;99.90;;;;;;5052070;28;20247;-77
2021/11/21 03:38:33;;;;;;;35.97;18.55;;;10.00;99.90;;;;;;5045998;28;20235;-76
2021/11/21 03:41:00;;;;;;;29.13;19.55;;;10.00;99.90;;;;;;5060518;28;20197;-77
2021/11/21 03:43:27;;;;;;;27.90;18.10;;;9.90;99.90;;;;;;5051590;28;20204;-77
2021/11/21 03:45:54;;;;;;;28.85;19.02;;;10.00;99.90;;;;;;5059560;28;20226;-76
2021/11/21 03:48:23;;;;;;;38.17;20.77;;;9.80;99.90;;;;;;5046490;28;20200;-75
2021/11/21 03:50:50;;;;;;;26.15;17.77;;;9.80;99.90;;;;;;5053499;28;21434;-76
2021/11/21 03:53:18;;;;;;;29.73;18.63;;;9.80;99.90;;;;;;5048451;28;20305;-76
2021/11/21 03:55:59;;;;;;;35.58;19.85;;;9.90;99.90;;;;;;5052020;28;20251;-75
2021/11/21 03:58:26;;;;;;;33.90;19.92;;;9.80;99.90;;;;;;5050968;28;20192;-75
2021/11/21 04:01:09;;;;;;;28.85;18.75;;;9.80;99.90;;;;;;5053274;28;20215;-77
2021/11/21 04:03:40;;;;;;;31.20;18.75;;;9.80;99.90;;;;;;5052931;28;20708;-76
2021/11/21 04:06:07;;;;;;;28.27;17.30;;;9.80;99.90;;;;;;5051559;28;20254;-76
2021/11/21 04:08:34;;;;;;;34.65;18.88;;;9.80;99.90;;;;;;5052201;28;20286;-75
2021/11/21 04:11:01;;;;;;;32.28;18.85;;;9.80;99.90;;;;;;5053820;28;20705;-75
2021/11/21 04:13:28;;;;;;;29.00;17.65;;;9.80;99.90;;;;;;5056908;28;20257;-75
2021/11/21 04:15:55;;;;;;;30.50;18.38;;;9.80;99.90;;;;;;5055575;28;20219;-74
2021/11/21 04:18:22;;;;;;;27.30;18.38;;;9.80;99.90;;;;;;5056535;28;20226;-74
2021/11/21 04:20:51;;;;;;;26.67;16.85;;;9.80;99.90;;;;;;5057114;28;20250;-75
2021/11/21 04:23:18;;;;;;;25.55;16.80;;;9.90;99.90;;;;;;5059961;28;20645;-75
2021/11/21 04:25:45;;;;;;;30.33;16.75;;;10.00;99.90;;;;;;5059509;28;20223;-75
2021/11/21 04:28:12;;;;;;;26.67;17.00;;;10.00;99.90;;;;;;5056297;28;20211;-75
2021/11/21 04:30:39;;;;;;;27.15;17.38;;;10.10;99.90;;;;;;5056222;28;20633;-75
2021/11/21 04:33:06;;;;;;;22.95;15.13;;;10.10;99.90;;;;;;5055974;28;20212;-74
2021/11/21 04:35:33;;;;;;;23.35;14.98;;;10.10;99.90;;;;;;5056278;28;20651;-75
2021/11/21 04:38:02;;;;;;;21.33;15.77;;;10.20;99.90;;;;;;5055985;28;20243;-75
2021/11/21 04:40:29;;;;;;;19.50;13.77;;;10.20;99.90;;;;;;5056102;28;20206;-75
2021/11/21 04:42:56;;;;;;;17.65;12.93;;;10.10;99.90;;;;;;5056603;28;20201;-75
2021/11/21 04:45:23;;;;;;;14.93;10.93;;;10.20;99.90;;;;;;5047897;28;20558;-75
2021/11/21 04:47:50;;;;;;;15.48;10.13;;;10.20;99.90;;;;;;5055782;28;20200;-74
2021/11/21 04:50:17;;;;;;;15.70;11.70;;;10.10;99.90;;;;;;5054592;28;20264;-74
2021/11/21 04:52:44;;;;;;;15.45;10.65;;;10.10;99.90;;;;;;5055703;28;20238;-74
2021/11/21 04:55:14;;;;;;;19.52;12.68;;;10.10;99.90;;;;;;5055268;28;20243;-73
2021/11/21 04:57:42;;;;;;;16.00;11.63;;;10.10;99.90;;;;;;5055322;28;20200;-75
2021/11/21 05:00:15;;;;;;;17.27;12.02;;;10.10;99.90;;;;;;5054547;28;20571;-74
2021/11/21 05:02:42;;;;;;;12.48;9.95;;;10.10;99.90;;;;;;5058805;28;20282;-74
2021/11/21 05:05:10;;;;;;;16.05;10.75;;;10.20;99.90;;;;;;5054286;28;20507;-75
2021/11/21 05:07:37;;;;;;;12.13;9.50;;;10.10;99.90;;;;;;5055645;28;20224;-75
2021/11/21 05:10:05;;;;;;;15.77;11.57;;;10.10;99.90;;;;;;5055815;28;20226;-74
2021/11/21 05:12:33;;;;;;;12.95;10.25;;;10.10;99.90;;;;;;5069258;28;20314;-74
2021/11/21 05:15:01;;;;;;;13.40;9.13;;;10.10;99.90;;;;;;5055125;28;20187;-74
2021/11/21 05:17:29;;;;;;;14.38;10.18;;;10.20;99.90;;;;;;5055283;28;20236;-75
2021/11/21 05:19:58;;;;;;;13.98;10.00;;;10.20;99.90;;;;;;5064059;28;20195;-75
2021/11/21 05:22:26;;;;;;;15.18;10.27;;;10.20;99.90;;;;;;5063525;28;20245;-75
2021/11/21 05:24:53;;;;;;;24.98;11.02;;;10.20;99.90;;;;;;5055176;28;20199;-75
2021/11/21 05:27:20;;;;;;;15.77;10.25;;;10.20;99.90;;;;;;5054326;28;20235;-74
2021/11/21 05:29:49;;;;;;;18.08;10.90;;;10.10;99.90;;;;;;5055649;28;20199;-75
2021/11/21 05:32:16;;;;;;;15.18;9.70;;;10.10;99.90;;;;;;5055162;28;20247;-74
2021/11/21 05:34:43;;;;;;;13.63;10.45;;;10.10;99.90;;;;;;5059458;28;20587;-75
2021/11/21 05:37:10;;;;;;;15.68;10.20;;;10.10;99.90;;;;;;5053934;28;20215;-75
2021/11/21 05:39:37;;;;;;;11.77;9.73;;;10.20;99.90;;;;;;5052360;28;20195;-75
2021/11/21 05:42:04;;;;;;;16.58;10.65;;;10.30;99.90;;;;;;5055119;28;20200;-75
2021/11/21 05:44:31;;;;;;;12.50;8.63;;;10.20;99.90;;;;;;5055102;28;20200;-75
2021/11/21 05:47:00;;;;;;;13.60;8.60;;;10.20;99.90;;;;;;5058490;28;20224;-74
2021/11/21 05:49:27;;;;;;;14.95;10.23;;;10.10;99.90;;;;;;5057267;28;20200;-75
2021/11/21 05:51:54;;;;;;;15.77;10.32;;;10.20;99.90;;;;;;5054948;28;20224;-75
2021/11/21 05:54:21;;;;;;;13.88;9.70;;;10.20;99.90;;;;;;5054563;28;20203;-75
2021/11/21 05:56:48;;;;;;;17.50;9.52;;;10.10;99.90;;;;;;5053962;28;20259;-75
2021/11/21 05:59:15;;;;;;;15.18;9.45;;;10.20;99.90;;;;;;5058034;28;20302;-75
2021/11/21 06:01:42;;;;;;;13.30;8.90;;;10.20;99.90;;;;;;5056704;28;20630;-75
2021/11/21 06:04:10;;;;;;;12.20;8.50;;;10.20;99.90;;;;;;5054624;28;20522;-76
2021/11/21 06:06:37;;;;;;;14.80;7.82;;;10.30;99.90;;;;;;5053657;28;20303;-74
2021/11/21 06:09:04;;;;;;;11.52;5.35;;;10.20;99.90;;;;;;5054608;28;20211;-75
2021/11/21 06:11:31;;;;;;;8.15;5.30;;;10.10;99.90;;;;;;5054351;28;20703;-74
2021/11/21 06:13:58;;;;;;;5.28;4.78;;;10.10;99.90;;;;;;5054570;28;20211;-74
2021/11/21 06:16:25;;;;;;;7.72;5.13;;;10.10;99.90;;;;;;5053473;28;20634;-74
2021/11/21 06:18:52;;;;;;;7.32;3.65;;;10.10;99.90;;;;;;5062942;28;20232;-75
2021/11/21 06:21:21;;;;;;;5.50;3.53;;;10.00;99.90;;;;;;5054219;28;20192;-75
2021/11/21 06:23:48;;;;;;;8.35;4.05;;;10.00;99.90;;;;;;5054420;28;20250;-75
2021/11/21 06:26:15;;;;;;;11.20;4.80;;;10.00;99.90;;;;;;5053190;28;20247;-75
2021/11/21 06:28:42;;;;;;;6.88;3.72;;;10.00;99.90;;;;;;5054164;28;20200;-75
2021/11/21 06:31:09;;;;;;;4.00;3.60;;;10.10;99.90;;;;;;5053010;28;20318;-75
2021/11/21 06:33:36;;;;;;;10.60;4.45;;;10.10;99.90;;;;;;5052870;28;20279;-75
2021/11/21 06:36:03;;;;;;;8.98;5.35;;;10.10;99.90;;;;;;5053310;28;20234;-76
2021/11/21 06:38:32;;;;;;;11.05;6.05;;;10.10;99.90;;;;;;5056972;28;20204;-75
2021/11/21 06:41:00;;;;;;;10.50;6.82;;;10.10;99.90;;;;;;5055181;28;20253;-75
2021/11/21 06:43:27;;;;;;;9.75;6.22;;;10.10;99.90;;;;;;5062278;28;20662;-75
2021/11/21 06:45:54;;;;;;;7.63;6.25;;;10.10;99.90;;;;;;5053308;28;20255;-75
2021/11/21 06:48:22;;;;;;;9.18;6.10;;;10.10;99.90;;;;;;5053417;28;20243;-75
2021/11/21 06:50:53;;;;;;;11.88;6.93;;;10.20;99.90;;;;;;5054290;28;20231;-75
2021/11/21 06:53:20;;;;;;;9.35;6.78;;;10.20;99.90;;;;;;5054523;28;20243;-75
2021/11/21 06:55:49;;;;;;;8.55;6.32;;;10.20;99.90;;;;;;5052903;28;20324;-75
2021/11/21 06:58:16;;;;;;;12.02;7.47;;;10.20;99.90;;;;;;5049793;28;20199;-75
2021/11/21 07:00:43;;;;;;;7.88;5.05;;;10.20;99.90;;;;;;5053374;28;20196;-75
2021/11/21 07:03:10;;;;;;;8.63;6.90;;;10.20;99.90;;;;;;5053149;28;20242;-75
2021/11/21 07:05:37;;;;;;;14.70;6.93;;;10.20;99.90;;;;;;5052980;28;20219;-75
2021/11/21 07:08:05;;;;;;;7.10;5.63;;;10.20;99.90;;;;;;5052934;28;20231;-75
2021/11/21 07:10:32;;;;;;;13.05;5.50;;;10.10;99.90;;;;;;5055949;28;20196;-75
2021/11/21 07:13:02;;;;;;;10.52;6.38;;;10.10;99.90;;;;;;5053068;28;20255;-75
2021/11/21 07:15:29;;;;;;;11.50;6.78;;;10.10;99.90;;;;;;5052231;28;20247;-76
2021/11/21 07:17:56;;;;;;;12.48;5.75;;;10.10;99.90;;;;;;5052178;28;20207;-74
2021/11/21 07:20:23;;;;;;;10.20;6.47;;;10.10;99.90;;;;;;5051768;28;20654;-74
2021/11/21 07:22:54;;;;;;;7.53;5.75;;;10.10;99.90;;;;;;5052496;28;20204;-75
2021/11/21 07:25:23;;;;;;;13.55;7.07;;;10.10;99.90;;;;;;5052204;28;20200;-76
2021/11/21 07:27:50;;;;;;;7.30;5.40;;;10.20;99.90;;;;;;5050595;28;20203;-74
2021/11/21 07:30:21;;;;;;;11.23;6.00;;;10.20;99.90;;;;;;5041252;28;20653;-75
2021/11/21 07:32:48;;;;;;;11.90;6.55;;;10.10;99.90;;;;;;5043598;28;20245;-76
2021/11/21 07:35:18;;;;;;;10.25;6.72;;;10.10;99.90;;;;;;5051821;28;20200;-76
2021/11/21 07:37:45;;;;;;;10.05;6.28;;;10.20;99.90;;;;;;5047587;28;20202;-75
2021/11/21 07:40:13;;;;;;;9.75;6.07;;;10.20;99.90;;;;;;5052067;28;20218;-76
2021/11/21 07:42:41;;;;;;;12.73;6.43;;;10.10;99.90;;;;;;5052742;28;20254;-76
2021/11/21 07:45:10;;;;;;;13.82;6.97;;;10.10;99.90;;;;;;5051308;28;20201;-75
2021/11/21 07:47:39;;;;;;;14.50;8.65;;;10.20;99.90;;;;;;5052726;28;20219;-77
2021/11/21 07:50:07;;;;;;;12.63;7.35;;;10.30;99.90;;;;;;5048380;28;20200;-76
2021/11/21 07:52:34;;;;;;;16.20;8.85;;;10.10;99.90;;;;;;5046472;28;20291;-76
2021/11/21 07:55:01;;;;;;;16.15;9.05;;;10.10;99.90;;;;;;5051648;28;20226;-75
2021/11/21 07:57:28;;;;;;;12.70;7.15;;;10.10;99.90;;;;;;5051333;28;20220;-74
2021/11/21 07:59:56;;;;;;;12.45;7.90;;;10.20;99.90;;;;;;5051138;28;20203;-75
2021/11/21 08:02:23;;;;;;;12.88;8.75;;;10.20;99.90;;;;;;5045827;28;20275;-76
2021/11/21 08:04:51;;;;;;;14.95;7.90;;;10.30;99.90;;;;;;5048444;28;20253;-76
2021/11/21 08:07:18;;;;;;;13.57;9.38;;;10.30;99.90;;;;;;5049126;28;20220;-76
2021/11/21 08:09:47;;;;;;;9.93;8.00;;;10.30;99.90;;;;;;5049318;28;20209;-76
2021/11/21 08:12:13;;;;;;;10.73;7.05;;;10.40;99.90;;;;;;5052735;28;20209;-77
2021/11/21 08:14:40;;;;;;;11.57;7.43;;;10.50;99.90;;;;;;5049077;28;20716;-78
2021/11/21 08:17:07;;;;;;;16.35;8.50;;;10.40;99.90;;;;;;5044242;28;20240;-77
2021/11/21 08:19:34;;;;;;;17.25;8.23;;;10.40;99.90;;;;;;5050798;28;20704;-78
2021/11/21 08:22:03;;;;;;;15.85;8.73;;;10.30;99.90;;;;;;5052349;28;20286;-76
2021/11/21 08:24:30;;;;;;;15.40;10.93;;;10.20;99.90;;;;;;5061047;28;20210;-78
2021/11/21 08:26:58;;;;;;;12.07;9.35;;;10.30;99.90;;;;;;5050525;28;20314;-79
2021/11/21 08:29:25;;;;;;;16.15;9.27;;;10.30;99.90;;;;;;5060108;28;20245;-77
2021/11/21 08:31:52;;;;;;;18.40;8.32;;;10.40;99.90;;;;;;5048585;28;20213;-76
2021/11/21 08:34:20;;;;;;;12.15;8.90;;;10.40;99.90;;;;;;5045136;28;20204;-78
2021/11/21 08:36:46;;;;;;;12.93;8.95;;;10.50;99.90;;;;;;5046143;28;20224;-74
2021/11/21 08:39:15;;;;;;;12.65;9.07;;;10.60;99.90;;;;;;5051408;28;20200;-73
2021/11/21 08:41:42;;;;;;;48.22;8.38;;;10.60;99.90;;;;;;5052127;28;20227;-75
2021/11/21 08:44:09;;;;;;;13.38;7.85;;;10.60;99.90;;;;;;5053501;28;20227;-73
2021/11/21 08:46:36;;;;;;;13.52;8.02;;;10.70;99.90;;;;;;5050579;28;20220;-75
2021/11/21 08:49:03;;;;;;;13.35;9.15;;;10.70;99.90;;;;;;5050073;28;20199;-74
2021/11/21 08:51:30;;;;;;;13.90;7.97;;;10.70;99.90;;;;;;5052282;28;20207;-77
2021/11/21 08:53:57;;;;;;;19.42;7.65;;;10.80;99.90;;;;;;5050892;28;20204;-77
2021/11/21 08:56:26;;;;;;;12.90;6.63;;;10.80;99.90;;;;;;5052292;28;20226;-75
2021/11/21 08:58:53;;;;;;;12.65;5.43;;;10.70;99.90;;;;;;5056402;28;20205;-75
2021/11/21 09:01:20;;;;;;;10.57;5.70;;;10.90;99.90;;;;;;5055932;28;20209;-76
2021/11/21 09:03:47;;;;;;;12.52;4.97;;;11.00;99.90;;;;;;5049935;28;20706;-74
2021/11/21 09:06:14;;;;;;;7.82;4.25;;;11.30;99.90;;;;;;5056053;28;20228;-76
2021/11/21 09:08:41;;;;;;;8.15;4.43;;;11.50;99.90;;;;;;5050658;28;20234;-78
2021/11/21 09:11:08;;;;;;;11.68;5.20;;;11.80;99.90;;;;;;5047323;28;20261;-76
2021/11/21 09:13:37;;;;;;;6.95;5.00;;;12.00;99.90;;;;;;5052292;28;20272;-78
2021/11/21 09:16:04;;;;;;;8.48;5.50;;;12.20;99.90;;;;;;5053921;28;20234;-76
2021/11/21 09:18:32;;;;;;;7.03;4.75;;;12.10;99.90;;;;;;5053787;28;20209;-76
2021/11/21 09:20:59;;;;;;;8.18;3.88;;;12.10;99.90;;;;;;5042148;28;20215;-76
2021/11/21 09:23:27;;;;;;;11.15;5.07;;;11.90;99.90;;;;;;5047503;28;20202;-75
2021/11/21 09:25:55;;;;;;;8.93;6.03;;;11.70;99.90;;;;;;5053854;28;20306;-75
2021/11/21 09:28:24;;;;;;;11.40;4.60;;;11.70;99.90;;;;;;5052120;28;20655;-75
2021/11/21 09:30:58;;;;;;;13.98;4.85;;;11.70;99.90;;;;;;5065519;28;20202;-74
2021/11/21 09:33:25;;;;;;;10.27;4.70;;;11.60;99.90;;;;;;5050530;28;20675;-76
2021/11/21 09:35:53;;;;;;;13.13;5.00;;;11.40;99.90;;;;;;5052144;28;20353;-77
2021/11/21 09:38:20;;;;;;;10.73;5.03;;;11.60;99.90;;;;;;5038616;28;20197;-74
2021/11/21 09:40:50;;;;;;;8.63;4.50;;;12.00;99.90;;;;;;5055818;28;20206;-75
2021/11/21 09:43:17;;;;;;;10.52;5.20;;;12.10;99.90;;;;;;5060885;28;20198;-76
2021/11/21 09:45:45;;;;;;;10.82;5.20;;;12.10;99.90;;;;;;5056537;28;20253;-75
2021/11/21 09:48:15;;;;;;;14.70;6.00;;;11.90;99.90;;;;;;5053199;28;20253;-75
2021/11/21 09:50:44;;;;;;;9.63;5.30;;;12.20;99.90;;;;;;5053495;28;20207;-73
2021/11/21 09:53:14;;;;;;;8.63;4.72;;;12.60;99.90;;;;;;5053016;28;20227;-73
2021/11/21 09:55:41;;;;;;;12.13;5.70;;;13.10;99.90;;;;;;5053633;28;20629;-74
2021/11/21 09:58:11;;;;;;;6.18;4.28;;;13.70;99.90;;;;;;5053988;28;20200;-75
2021/11/21 10:00:40;;;;;;;6.22;4.00;;;14.30;99.90;;;;;;5052190;28;20204;-77
2021/11/21 10:03:09;;;;;;;12.88;4.90;;;14.60;99.90;;;;;;5049540;28;20214;-77
2021/11/21 10:05:40;;;;;;;5.07;3.42;;;15.00;99.90;;;;;;5048697;28;20230;-76
2021/11/21 10:08:11;;;;;;;9.02;4.60;;;15.30;99.90;;;;;;5053659;28;20306;-77
2021/11/21 10:10:41;;;;;;;22.63;3.80;;;15.70;99.90;;;;;;5054366;28;20205;-77
2021/11/21 10:13:30;;;;;;;10.47;3.87;;;15.90;99.90;;;;;;5053608;28;20516;-77
2021/11/21 10:15:58;;;;;;;7.38;3.40;;;16.00;99.90;;;;;;5051213;28;20476;-76
2021/11/21 10:18:25;;;;;;;8.30;3.70;;;16.00;99.90;;;;;;5051962;28;20198;-78
2021/11/21 10:20:56;;;;;;;9.60;2.38;;;16.10;99.90;;;;;;5054691;28;20450;-79
2021/11/21 10:23:23;;;;;;;11.98;3.80;;;15.80;99.90;;;;;;5056675;28;20205;-77
2021/11/21 10:25:55;;;;;;;9.90;2.47;;;15.40;99.90;;;;;;5044228;28;20702;-75
2021/11/21 10:28:28;;;;;;;9.23;3.08;;;14.80;99.90;;;;;;5048428;28;20200;-76
2021/11/21 10:31:08;;;;;;;7.75;3.10;;;14.50;99.90;;;;;;5050116;28;20207;-78
2021/11/21 10:33:37;;;;;;;8.05;2.75;;;14.40;99.90;;;;;;5051285;28;20227;-78
2021/11/21 10:36:08;;;;;;;10.48;2.95;;;14.40;99.90;;;;;;5051463;28;20227;-77
2021/11/21 10:38:39;;;;;;;13.50;3.17;;;14.40;99.90;;;;;;5044529;28;20723;-79
2021/11/21 10:41:11;;;;;;;12.38;3.20;;;14.40;99.90;;;;;;5052619;28;20211;-79
2021/11/21 10:43:48;;;;;;;11.27;4.55;;;14.50;99.90;;;;;;5053006;28;20218;-81
2021/11/21 10:46:37;;;;;;;9.18;3.58;;;14.40;99.90;;;;;;5052620;28;20558;-77
2021/11/21 10:49:16;;;;;;;10.55;2.65;;;14.30;99.90;;;;;;5051354;28;20257;-76
2021/11/21 10:51:45;;;;;;;11.32;3.40;;;14.00;99.90;;;;;;5053544;28;20206;-75
2021/11/21 10:54:21;;;;;;;13.25;5.05;;;13.90;99.90;;;;;;5050970;28;20230;-76
2021/11/21 10:56:49;;;;;;;6.13;2.72;;;13.80;99.90;;;;;;5050758;28;20580;-77
2021/11/21 10:59:47;;;;;;;7.65;2.63;;;13.60;99.90;;;;;;5052415;28;20210;-75
2021/11/21 11:02:20;;;;;;;6.57;2.80;;;13.50;99.90;;;;;;5036580;28;20207;-75
2021/11/21 11:04:59;;;;;;;13.07;4.07;;;13.40;99.90;;;;;;5053076;28;20202;-75
2021/11/21 11:07:28;;;;;;;6.55;1.52;;;13.30;99.90;;;;;;5044980;28;20304;-77
2021/11/21 11:09:58;;;;;;;4.57;2.00;;;13.10;99.90;;;;;;5042013;28;20202;-72
2021/11/21 11:12:26;;;;;;;9.57;3.38;;;12.90;99.90;;;;;;5046305;28;20198;-73
2021/11/21 11:14:56;;;;;;;6.82;2.55;;;12.80;99.90;;;;;;5048029;28;20213;-71
2021/11/21 11:17:26;;;;;;;11.07;2.88;;;12.60;99.90;;;;;;5048397;28;20337;-72
2021/11/21 11:19:56;;;;;;;6.05;2.22;;;12.50;99.90;;;;;;5040145;28;20272;-73
2021/11/21 11:22:24;;;;;;;7.25;2.95;;;12.50;99.90;;;;;;5039419;28;20226;-72
2021/11/21 11:24:55;;;;;;;6.28;2.13;;;12.40;99.90;;;;;;5054973;28;20737;-71
2021/11/21 11:27:29;;;;;;;10.20;2.72;;;12.40;99.90;;;;;;5047770;28;20222;-73
2021/11/21 11:29:58;;;;;;;11.60;2.40;;;12.60;99.90;;;;;;5050257;28;20206;-71
2021/11/21 11:32:36;;;;;;;6.55;2.25;;;12.60;99.90;;;;;;5048070;28;20281;-70
2021/11/21 11:35:07;;;;;;;8.30;2.60;;;12.80;99.90;;;;;;5042261;28;20234;-72
2021/11/21 11:37:45;;;;;;;8.13;1.90;;;12.80;99.90;;;;;;5049898;28;20317;-74
2021/11/21 11:40:49;;;;;;;7.13;1.63;;;12.70;99.90;;;;;;5051678;28;20206;-70
2021/11/21 11:43:37;;;;;;;8.70;2.42;;;12.50;99.90;;;;;;5058242;28;20548;-73
2021/11/21 11:46:10;;;;;;;3.67;1.80;;;12.50;99.90;;;;;;5050291;28;20369;-76
2021/11/21 11:48:48;;;;;;;6.18;2.40;;;12.60;99.90;;;;;;5044113;28;20199;-74
2021/11/21 11:51:20;;;;;;;4.90;1.83;;;12.60;99.90;;;;;;5041967;28;20200;-74
2021/11/21 11:53:49;;;;;;;5.25;2.00;;;12.60;99.90;;;;;;5048003;28;20217;-72
2021/11/21 11:56:21;;;;;;;8.43;1.80;;;12.30;99.90;;;;;;5039441;28;20221;-70
2021/11/21 11:58:58;;;;;;;6.53;1.70;;;12.00;99.90;;;;;;5046801;28;20218;-71
2021/11/21 12:01:57;;;;;;;8.10;2.35;;;11.90;99.90;;;;;;5047155;28;20210;-75
2021/11/21 12:04:50;;;;;;;4.70;2.80;;;11.80;99.90;;;;;;5043703;28;20245;-71
2021/11/21 12:07:30;;;;;;;8.32;2.20;;;11.70;99.90;;;;;;5050179;28;20256;-72
2021/11/21 12:10:09;;;;;;;4.10;1.40;;;11.70;99.90;;;;;;5050761;28;20268;-71
2021/11/21 12:15:54;;;;;;;7.63;1.90;;;11.60;99.90;;;;;;5049307;28;20230;-71
2021/11/21 12:18:22;;;;;;;6.53;1.77;;;11.70;99.90;;;;;;5047066;28;20253;-71
2021/11/21 12:20:56;;;;;;;9.40;1.80;;;11.70;99.90;;;;;;5047944;28;20199;-72
2021/11/21 12:24:06;;;;;;;5.95;1.83;;;11.90;99.90;;;;;;5047713;28;20199;-71
2021/11/21 12:26:39;;;;;;;7.00;1.30;;;11.90;99.90;;;;;;5044639;28;20300;-72
2021/11/21 12:29:10;;;;;;;7.22;1.83;;;12.00;99.90;;;;;;5050080;28;20210;-72
2021/11/21 12:31:39;;;;;;;11.18;2.03;;;12.20;99.90;;;;;;5049142;28;20699;-71
2021/11/21 12:34:35;;;;;;;10.48;1.55;;;12.40;99.90;;;;;;5048569;28;20210;-70
2021/11/21 12:37:33;;;;;;;8.90;2.08;;;12.60;99.90;;;;;;5053420;28;20276;-72
2021/11/21 12:40:13;;;;;;;5.43;1.25;;;12.60;99.90;;;;;;5053576;28;20272;-70
2021/11/21 12:42:42;;;;;;;4.85;2.55;;;12.50;99.90;;;;;;5053759;28;20531;-71
2021/11/21 12:45:14;;;;;;;3.28;1.25;;;12.60;99.90;;;;;;5048228;28;20202;-70
2021/11/21 12:47:43;;;;;;;7.60;1.92;;;12.50;99.90;;;;;;5054068;28;20206;-73
2021/11/21 12:50:22;;;;;;;8.43;2.10;;;12.70;99.90;;;;;;5049072;28;20211;-71